createdAt,value
2022-10-04T00:00:40.370Z,74.68
2022-10-04T00:01:40.653Z,74.64
2022-10-04T00:02:40.400Z,74.88
2022-10-04T00:03:40.352Z,74.74
2022-10-04T00:04:40.325Z,74.64
2022-10-04T00:05:40.366Z,74.48
2022-10-04T00:06:40.326Z,74.77
2022-10-04T00:07:40.313Z,74.77
2022-10-04T00:08:40.303Z,74.57
2022-10-04T00:09:40.300Z,74.77
2022-10-04T00:10:40.271Z,74.88
2022-10-04T00:11:40.470Z,74.77
2022-10-04T00:12:40.244Z,74.77
2022-10-04T00:13:40.258Z,74.88
2022-10-04T00:14:40.236Z,74.68
2022-10-04T00:15:40.209Z,74.74
2022-10-04T00:16:40.420Z,74.88
2022-10-04T00:17:40.189Z,74.68
2022-10-04T00:18:40.169Z,74.48
2022-10-04T00:19:40.193Z,74.57
2022-10-04T00:20:40.155Z,74.77
2022-10-04T00:21:40.465Z,74.48
2022-10-04T00:22:40.172Z,74.98
2022-10-04T00:23:40.118Z,75.08
2022-10-04T00:24:40.157Z,74.88
2022-10-04T00:25:40.098Z,75.18
2022-10-04T00:26:40.089Z,75.18
2022-10-04T00:27:40.083Z,75.18
2022-10-04T00:28:40.097Z,75.28
2022-10-04T00:29:40.056Z,75.18
2022-10-04T00:30:40.077Z,75.38
2022-10-04T00:31:40.334Z,75.18
2022-10-04T00:32:40.015Z,75.32
2022-10-04T00:33:40.008Z,75.08
2022-10-04T00:34:40.021Z,75.59
2022-10-04T00:35:39.992Z,75.82
2022-10-04T00:36:39.976Z,75.73
2022-10-04T00:37:39.961Z,75.93
2022-10-04T00:38:39.967Z,76.03
2022-10-04T00:39:39.984Z,75.32
2022-10-04T00:40:39.926Z,75.52
2022-10-04T00:41:40.257Z,75.32
2022-10-04T00:42:39.903Z,75.73
2022-10-04T00:43:39.903Z,75.32
2022-10-04T00:44:39.904Z,75.93
2022-10-04T00:45:39.874Z,75.73
2022-10-04T00:46:39.857Z,76.03
2022-10-04T00:47:39.882Z,76.03
2022-10-04T00:48:39.840Z,75.93
2022-10-04T00:49:39.835Z,76.03
2022-10-04T00:50:39.841Z,76.03
2022-10-04T00:51:39.973Z,75.62
2022-10-04T00:52:39.791Z,76.27
2022-10-04T00:53:39.780Z,76.13
2022-10-04T00:54:39.795Z,76.74
2022-10-04T00:55:39.786Z,76.57
2022-10-04T00:56:39.748Z,76.87
2022-10-04T00:57:39.763Z,76.57
2022-10-04T00:58:39.749Z,76.43
2022-10-04T00:59:39.714Z,76.98
2022-10-04T01:00:39.762Z,77.08
2022-10-04T01:01:39.986Z,76.98
2022-10-04T01:02:39.756Z,77.08
2022-10-04T01:03:39.683Z,76.64
2022-10-04T01:04:39.667Z,76.54
2022-10-04T01:05:39.674Z,76.78
2022-10-04T01:06:39.641Z,76.64
2022-10-04T01:07:39.655Z,76.64
2022-10-04T01:08:39.629Z,76.64
2022-10-04T01:09:39.606Z,76.43
2022-10-04T01:10:39.718Z,76.74
2022-10-04T01:11:39.939Z,76.64
2022-10-04T01:12:39.594Z,76.64
2022-10-04T01:13:39.565Z,76.64
2022-10-04T01:14:39.546Z,75.93
2022-10-04T01:15:39.596Z,76.64
2022-10-04T01:16:39.527Z,76.17
2022-10-04T01:17:39.593Z,76.78
2022-10-04T01:18:39.521Z,76.57
2022-10-04T01:19:39.496Z,76.57
2022-10-04T01:20:39.495Z,76.98
2022-10-04T01:21:39.749Z,76.78
2022-10-04T01:22:39.461Z,77.08
2022-10-04T01:23:39.463Z,76.78
2022-10-04T01:24:39.490Z,76.67
2022-10-04T01:25:39.427Z,76.67
2022-10-04T01:26:39.450Z,76.98
2022-10-04T01:27:39.443Z,76.98
2022-10-04T01:28:39.428Z,76.98
2022-10-04T01:29:39.396Z,76.87
2022-10-04T01:30:39.463Z,76.98
2022-10-04T01:31:39.690Z,76.98
2022-10-04T01:32:39.347Z,76.87
2022-10-04T01:33:39.375Z,76.78
2022-10-04T01:34:39.329Z,76.27
2022-10-04T01:35:39.330Z,76.81
2022-10-04T01:36:39.330Z,77.32
2022-10-04T01:37:39.309Z,77.01
2022-10-04T01:38:39.318Z,77.08
2022-10-04T01:39:39.270Z,76.91
2022-10-04T01:40:39.286Z,77.22
2022-10-04T01:41:39.391Z,77.22
2022-10-04T01:42:39.254Z,76.67
2022-10-04T01:43:39.252Z,76.57
2022-10-04T01:44:39.235Z,77.18
2022-10-04T01:45:39.219Z,76.67
2022-10-04T01:46:39.318Z,76.37
2022-10-04T01:47:39.181Z,76.78
2022-10-04T01:48:39.184Z,77.18
2022-10-04T01:49:39.159Z,76.98
2022-10-04T01:50:39.160Z,77.18
2022-10-04T01:51:39.422Z,76.98
2022-10-04T01:52:39.130Z,76.87
2022-10-04T01:53:39.114Z,76.87
2022-10-04T01:54:39.118Z,76.87
2022-10-04T01:55:39.100Z,76.78
2022-10-04T01:56:39.082Z,76.67
2022-10-04T01:57:39.082Z,76.81
2022-10-04T01:58:39.093Z,76.81
2022-10-04T01:59:39.083Z,77.12
2022-10-04T02:00:39.062Z,76.61
2022-10-04T02:01:39.119Z,77.28
2022-10-04T02:02:39.041Z,77.01
2022-10-04T02:03:39.113Z,76.78
2022-10-04T02:04:39.075Z,76.87
2022-10-04T02:05:38.988Z,76.98
2022-10-04T02:06:38.969Z,76.51
2022-10-04T02:07:38.984Z,76.61
2022-10-04T02:08:39.045Z,76.71
2022-10-04T02:09:38.949Z,76.81
2022-10-04T02:10:43.273Z,76.27
2022-10-04T02:11:38.922Z,76.51
2022-10-04T02:12:38.909Z,76.81
2022-10-04T02:13:38.924Z,76.81
2022-10-04T02:14:38.988Z,76.71
2022-10-04T02:15:38.944Z,76.47
2022-10-04T02:16:38.878Z,76.61
2022-10-04T02:17:38.882Z,76.71
2022-10-04T02:18:38.939Z,76.57
2022-10-04T02:19:38.847Z,76.87
2022-10-04T02:20:38.854Z,76.71
2022-10-04T02:21:38.818Z,76.61
2022-10-04T02:22:38.793Z,76.71
2022-10-04T02:23:38.794Z,76.20
2022-10-04T02:24:38.770Z,76.81
2022-10-04T02:25:38.863Z,76.91
2022-10-04T02:26:38.751Z,76.81
2022-10-04T02:27:38.745Z,77.01
2022-10-04T02:28:38.732Z,76.98
2022-10-04T02:29:38.716Z,76.81
2022-10-04T02:30:38.723Z,76.71
2022-10-04T02:31:38.760Z,76.81
2022-10-04T02:32:38.742Z,76.81
2022-10-04T02:33:38.692Z,76.91
2022-10-04T02:34:38.671Z,76.81
2022-10-04T02:35:38.659Z,76.81
2022-10-04T02:36:38.642Z,76.61
2022-10-04T02:37:38.647Z,77.05
2022-10-04T02:38:38.641Z,77.01
2022-10-04T02:39:38.622Z,77.05
2022-10-04T02:40:38.625Z,76.75
2022-10-04T02:41:38.602Z,77.05
2022-10-04T02:42:38.598Z,77.05
2022-10-04T02:43:38.566Z,77.05
2022-10-04T02:44:38.551Z,76.85
2022-10-04T02:45:38.554Z,77.45
2022-10-04T02:46:38.740Z,77.05
2022-10-04T02:47:38.525Z,77.25
2022-10-04T02:48:38.515Z,76.85
2022-10-04T02:49:38.506Z,76.85
2022-10-04T02:50:38.509Z,76.75
2022-10-04T02:51:38.501Z,77.05
2022-10-04T02:52:38.476Z,76.64
2022-10-04T02:53:38.457Z,77.15
2022-10-04T02:54:38.439Z,76.54
2022-10-04T02:55:38.432Z,76.85
2022-10-04T02:56:38.449Z,77.39
2022-10-04T02:57:38.404Z,77.19
2022-10-04T02:58:38.392Z,77.09
2022-10-04T02:59:38.399Z,76.98
2022-10-04T03:00:38.408Z,77.39
2022-10-04T03:01:38.460Z,76.98
2022-10-04T03:02:38.485Z,76.48
2022-10-04T03:03:38.383Z,76.92
2022-10-04T03:04:38.329Z,77.09
2022-10-04T03:05:38.322Z,77.12
2022-10-04T03:06:38.331Z,77.22
2022-10-04T03:07:38.314Z,77.83
2022-10-04T03:08:38.304Z,77.83
2022-10-04T03:09:38.277Z,77.53
2022-10-04T03:10:38.264Z,77.83
2022-10-04T03:11:38.257Z,77.83
2022-10-04T03:12:38.270Z,77.83
2022-10-04T03:13:38.228Z,78.04
2022-10-04T03:14:38.216Z,78.08
2022-10-04T03:15:38.205Z,77.97
2022-10-04T03:16:38.229Z,77.77
2022-10-04T03:17:38.211Z,77.56
2022-10-04T03:18:38.201Z,77.87
2022-10-04T03:19:38.836Z,78.17
2022-10-04T03:20:38.169Z,77.87
2022-10-04T03:21:38.138Z,77.47
2022-10-04T03:22:38.127Z,78.17
2022-10-04T03:23:38.114Z,78.17
2022-10-04T03:24:38.119Z,77.56
2022-10-04T03:25:38.115Z,77.56
2022-10-04T03:26:38.255Z,77.67
2022-10-04T03:27:38.078Z,77.56
2022-10-04T03:28:38.179Z,77.77
2022-10-04T03:29:38.096Z,77.67
2022-10-04T03:30:38.049Z,77.77
2022-10-04T03:31:38.103Z,77.87
2022-10-04T03:32:38.045Z,77.47
2022-10-04T03:33:38.018Z,77.67
2022-10-04T03:34:38.020Z,77.81
2022-10-04T03:35:37.987Z,77.70
2022-10-04T03:36:38.042Z,77.67
2022-10-04T03:37:37.978Z,77.67
2022-10-04T03:38:38.047Z,77.81
2022-10-04T03:39:37.949Z,78.21
2022-10-04T03:40:37.935Z,78.17
2022-10-04T03:41:37.915Z,78.01
2022-10-04T03:42:37.995Z,78.11
2022-10-04T03:43:37.900Z,77.77
2022-10-04T03:44:37.883Z,77.67
2022-10-04T03:45:37.914Z,77.50
2022-10-04T03:46:37.937Z,77.09
2022-10-04T03:47:37.899Z,77.09
2022-10-04T03:48:37.848Z,77.26
2022-10-04T03:49:37.853Z,77.81
2022-10-04T03:50:37.845Z,77.29
2022-10-04T03:51:37.822Z,77.47
2022-10-04T03:52:37.803Z,76.79
2022-10-04T03:53:37.888Z,76.68
2022-10-04T03:54:37.783Z,77.29
2022-10-04T03:55:37.789Z,77.20
2022-10-04T03:56:37.803Z,77.09
2022-10-04T03:57:37.741Z,77.50
2022-10-04T03:58:37.748Z,76.99
2022-10-04T03:59:37.744Z,76.99
2022-10-04T04:00:37.770Z,77.29
2022-10-04T04:01:37.876Z,77.20
2022-10-04T04:02:40.360Z,77.50
2022-10-04T04:03:37.704Z,77.40
2022-10-04T04:04:37.697Z,77.20
2022-10-04T04:05:37.663Z,76.99
2022-10-04T04:06:37.757Z,76.89
2022-10-04T04:07:37.636Z,76.79
2022-10-04T04:08:37.629Z,76.99
2022-10-04T04:09:37.621Z,77.23
2022-10-04T04:10:37.597Z,77.03
2022-10-04T04:11:37.613Z,77.64
2022-10-04T04:12:37.574Z,77.70
2022-10-04T04:13:37.564Z,77.84
2022-10-04T04:14:37.573Z,77.74
2022-10-04T04:15:37.551Z,77.84
2022-10-04T04:16:37.703Z,77.74
2022-10-04T04:17:37.552Z,77.84
2022-10-04T04:18:37.531Z,77.53
2022-10-04T04:19:37.515Z,77.74
2022-10-04T04:20:37.512Z,77.84
2022-10-04T04:21:37.480Z,77.64
2022-10-04T04:22:37.486Z,77.74
2022-10-04T04:23:37.474Z,77.84
2022-10-04T04:24:37.491Z,77.84
2022-10-04T04:25:37.438Z,77.74
2022-10-04T04:26:37.519Z,77.94
2022-10-04T04:27:37.413Z,77.64
2022-10-04T04:28:37.542Z,77.74
2022-10-04T04:29:37.416Z,77.94
2022-10-04T04:30:37.377Z,77.84
2022-10-04T04:31:37.431Z,78.15
2022-10-04T04:32:37.378Z,78.15
2022-10-04T04:33:37.345Z,78.05
2022-10-04T04:34:37.342Z,78.05
2022-10-04T04:35:37.321Z,77.74
2022-10-04T04:36:37.365Z,77.94
2022-10-04T04:37:37.300Z,78.05
2022-10-04T04:38:37.314Z,78.15
2022-10-04T04:39:37.523Z,78.15
2022-10-04T04:40:37.282Z,77.94
2022-10-04T04:41:37.292Z,78.05
2022-10-04T04:42:37.245Z,78.05
2022-10-04T04:43:37.246Z,78.19
2022-10-04T04:44:37.268Z,77.57
2022-10-04T04:45:37.277Z,78.28
2022-10-04T04:46:37.375Z,78.15
2022-10-04T04:47:37.238Z,77.94
2022-10-04T04:48:37.234Z,77.98
2022-10-04T04:49:37.184Z,78.19
2022-10-04T04:50:37.182Z,78.19
2022-10-04T04:51:37.147Z,78.08
2022-10-04T04:52:37.155Z,78.28
2022-10-04T04:53:37.193Z,78.28
2022-10-04T04:54:37.131Z,78.19
2022-10-04T04:56:01.890Z,78.49
2022-10-04T04:56:37.095Z,78.39
2022-10-04T04:57:37.084Z,78.39
2022-10-04T04:58:37.091Z,78.28
2022-10-04T04:59:37.111Z,78.49
2022-10-04T05:00:37.047Z,78.49
2022-10-04T05:01:37.037Z,78.28
2022-10-04T05:02:37.097Z,78.39
2022-10-04T05:03:37.030Z,78.28
2022-10-04T05:04:37.024Z,78.35
2022-10-04T05:05:36.990Z,78.15
2022-10-04T05:06:36.992Z,77.94
2022-10-04T05:07:36.994Z,78.15
2022-10-04T05:08:41.211Z,78.25
2022-10-04T05:09:36.952Z,77.94
2022-10-04T05:10:36.963Z,77.67
2022-10-04T05:11:37.010Z,77.84
2022-10-04T05:12:36.933Z,78.08
2022-10-04T05:13:36.934Z,77.67
2022-10-04T05:14:36.893Z,77.87
2022-10-04T05:15:36.886Z,77.98
2022-10-04T05:16:36.992Z,78.39
2022-10-04T05:17:36.856Z,78.49
2022-10-04T05:18:36.876Z,78.49
2022-10-04T05:19:36.879Z,78.80
2022-10-04T05:20:36.830Z,78.59
2022-10-04T05:21:39.691Z,78.89
2022-10-04T05:22:36.806Z,78.59
2022-10-04T05:23:36.791Z,78.59
2022-10-04T05:24:36.814Z,78.49
2022-10-04T05:25:36.780Z,78.35
2022-10-04T05:26:36.785Z,78.45
2022-10-04T05:27:36.762Z,78.86
2022-10-04T05:28:36.795Z,78.25
2022-10-04T05:29:36.753Z,78.05
2022-10-04T05:30:36.722Z,78.19
2022-10-04T05:31:36.743Z,77.94
2022-10-04T05:32:36.705Z,78.15
2022-10-04T05:33:36.738Z,77.94
2022-10-04T05:34:36.683Z,77.94
2022-10-04T05:35:36.660Z,77.94
2022-10-04T05:36:36.660Z,77.94
2022-10-04T05:37:36.636Z,78.35
2022-10-04T05:38:36.637Z,78.25
2022-10-04T05:39:36.644Z,78.25
2022-10-04T05:40:36.623Z,78.25
2022-10-04T05:41:36.629Z,78.45
2022-10-04T05:42:36.687Z,78.25
2022-10-04T05:43:36.575Z,78.25
2022-10-04T05:44:36.580Z,78.35
2022-10-04T05:45:36.638Z,77.81
2022-10-04T05:46:39.697Z,78.11
2022-10-04T05:47:36.601Z,77.91
2022-10-04T05:48:36.516Z,77.81
2022-10-04T05:49:36.521Z,78.21
2022-10-04T05:50:36.516Z,78.21
2022-10-04T05:51:36.483Z,78.01
2022-10-04T05:52:36.479Z,77.81
2022-10-04T05:53:36.471Z,77.91
2022-10-04T05:54:36.452Z,77.70
2022-10-04T05:55:36.456Z,77.70
2022-10-04T05:56:36.448Z,77.09
2022-10-04T05:57:36.413Z,77.81
2022-10-04T05:58:36.440Z,77.91
2022-10-04T05:59:36.400Z,77.70
2022-10-04T06:00:36.389Z,77.56
2022-10-04T06:01:36.521Z,76.86
2022-10-04T06:02:36.470Z,76.95
2022-10-04T06:03:36.350Z,77.16
2022-10-04T06:04:36.341Z,77.16
2022-10-04T06:05:36.338Z,77.16
2022-10-04T06:06:36.320Z,77.06
2022-10-04T06:07:36.354Z,76.65
2022-10-04T06:08:36.318Z,77.47
2022-10-04T06:09:36.303Z,77.16
2022-10-04T06:10:36.274Z,77.36
2022-10-04T06:11:36.290Z,76.95
2022-10-04T06:12:36.252Z,77.12
2022-10-04T06:13:36.247Z,77.36
2022-10-04T06:14:36.283Z,77.16
2022-10-04T06:15:36.235Z,77.16
2022-10-04T06:16:36.313Z,77.02
2022-10-04T06:17:36.239Z,77.26
2022-10-04T06:18:36.191Z,76.82
2022-10-04T06:19:36.192Z,76.61
2022-10-04T06:20:36.189Z,76.51
2022-10-04T06:21:36.153Z,76.92
2022-10-04T06:22:36.153Z,76.82
2022-10-04T06:23:36.134Z,76.82
2022-10-04T06:24:36.126Z,76.82
2022-10-04T06:25:36.133Z,76.61
2022-10-04T06:26:36.112Z,76.92
2022-10-04T06:27:36.093Z,76.68
2022-10-04T06:28:36.119Z,76.92
2022-10-04T06:29:36.066Z,76.41
2022-10-04T06:30:36.168Z,76.10
2022-10-04T06:31:36.072Z,76.41
2022-10-04T06:32:36.031Z,75.87
2022-10-04T06:33:36.028Z,76.07
2022-10-04T06:34:36.015Z,76.17
2022-10-04T06:35:36.030Z,76.17
2022-10-04T06:36:35.988Z,76.28
2022-10-04T06:37:35.977Z,75.56
2022-10-04T06:38:35.978Z,75.97
2022-10-04T06:39:35.978Z,75.97
2022-10-04T06:40:35.965Z,76.28
2022-10-04T06:41:35.936Z,75.46
2022-10-04T06:42:35.938Z,75.97
2022-10-04T06:43:35.911Z,75.97
2022-10-04T06:44:35.913Z,76.17
2022-10-04T06:45:35.890Z,75.87
2022-10-04T06:46:36.044Z,76.37
2022-10-04T06:47:35.889Z,76.17
2022-10-04T06:48:35.900Z,76.17
2022-10-04T06:49:35.871Z,75.87
2022-10-04T06:50:35.853Z,75.46
2022-10-04T06:51:35.823Z,76.14
2022-10-04T06:52:35.833Z,76.14
2022-10-04T06:53:35.807Z,76.03
2022-10-04T06:54:35.799Z,76.24
2022-10-04T06:55:35.808Z,76.03
2022-10-04T06:56:35.772Z,75.63
2022-10-04T06:57:35.775Z,75.36
2022-10-04T06:58:35.747Z,75.52
2022-10-04T06:59:35.743Z,75.83
2022-10-04T07:00:35.725Z,75.63
2022-10-04T07:01:35.789Z,75.32
2022-10-04T07:02:35.839Z,75.22
2022-10-04T07:03:36.243Z,74.92
2022-10-04T07:05:03.110Z,74.71
2022-10-04T07:05:35.682Z,74.78
2022-10-04T07:06:35.655Z,74.78
2022-10-04T07:07:35.675Z,74.48
2022-10-04T07:08:35.652Z,74.88
2022-10-04T07:09:35.635Z,74.78
2022-10-04T07:10:35.625Z,74.68
2022-10-04T07:11:35.657Z,74.68
2022-10-04T07:12:35.625Z,74.85
2022-10-04T07:13:35.579Z,75.49
2022-10-04T07:14:35.592Z,75.35
2022-10-04T07:15:35.701Z,74.98
2022-10-04T07:16:35.549Z,74.58
2022-10-04T07:17:35.544Z,74.68
2022-10-04T07:18:35.562Z,74.58
2022-10-04T07:19:35.514Z,74.78
2022-10-04T07:20:35.579Z,74.78
2022-10-04T07:21:35.492Z,74.07
2022-10-04T07:22:35.485Z,73.93
2022-10-04T07:23:35.494Z,73.83
2022-10-04T07:24:35.485Z,73.93
2022-10-04T07:25:35.458Z,74.95
2022-10-04T07:26:35.449Z,74.74
2022-10-04T07:27:35.424Z,73.93
2022-10-04T07:28:35.552Z,73.70
2022-10-04T07:29:39.891Z,74.10
2022-10-04T07:30:35.481Z,74.21
2022-10-04T07:31:35.423Z,73.70
2022-10-04T07:32:35.378Z,74.81
2022-10-04T07:33:35.364Z,74.00
2022-10-04T07:34:35.373Z,74.71
2022-10-04T07:35:35.411Z,73.86
2022-10-04T07:36:35.341Z,73.66
2022-10-04T07:37:35.312Z,73.86
2022-10-04T07:38:35.310Z,73.97
2022-10-04T07:39:35.294Z,73.46
2022-10-04T07:40:35.290Z,73.32
2022-10-04T07:41:35.295Z,72.61
2022-10-04T07:42:35.260Z,73.02
2022-10-04T07:43:35.247Z,72.81
2022-10-04T07:44:35.244Z,72.72
2022-10-04T07:45:35.238Z,73.02
2022-10-04T07:46:35.314Z,72.72
2022-10-04T07:47:35.204Z,71.80
2022-10-04T07:48:35.205Z,71.91
2022-10-04T07:49:35.187Z,72.52
2022-10-04T07:50:35.214Z,72.21
2022-10-04T07:51:35.183Z,72.28
2022-10-04T07:52:35.164Z,72.38
2022-10-04T07:53:35.134Z,72.28
2022-10-04T07:54:35.123Z,72.28
2022-10-04T07:55:35.117Z,71.77
2022-10-04T07:56:35.110Z,71.50
2022-10-04T07:57:35.112Z,71.97
2022-10-04T07:58:35.078Z,72.08
2022-10-04T07:59:35.080Z,71.57
2022-10-04T08:00:35.081Z,71.97
2022-10-04T08:01:35.101Z,72.38
2022-10-04T08:02:35.157Z,71.57
2022-10-04T08:03:35.129Z,71.06
2022-10-04T08:04:35.012Z,71.37
2022-10-04T08:05:35.002Z,71.73
2022-10-04T08:06:35.020Z,71.73
2022-10-04T08:07:35.006Z,71.53
2022-10-04T08:08:34.979Z,71.23
2022-10-04T08:09:34.992Z,71.47
2022-10-04T08:10:34.990Z,71.84
2022-10-04T08:11:34.938Z,71.64
2022-10-04T08:12:34.934Z,71.33
2022-10-04T08:13:34.912Z,71.53
2022-10-04T08:14:34.905Z,71.33
2022-10-04T08:15:34.987Z,70.52
2022-10-04T08:16:34.899Z,71.26
2022-10-04T08:17:34.869Z,71.06
2022-10-04T08:18:34.855Z,72.01
2022-10-04T08:19:34.846Z,72.01
2022-10-04T08:20:34.856Z,71.70
2022-10-04T08:21:34.826Z,71.40
2022-10-04T08:22:34.838Z,71.50
2022-10-04T08:23:34.807Z,71.09
2022-10-04T08:24:34.810Z,71.50
2022-10-04T08:25:34.784Z,71.40
2022-10-04T08:26:34.789Z,70.96
2022-10-04T08:27:34.789Z,71.47
2022-10-04T08:28:34.804Z,70.49
2022-10-04T08:29:34.761Z,71.20
2022-10-04T08:30:34.723Z,70.49
2022-10-04T08:31:34.858Z,70.69
2022-10-04T08:32:34.717Z,70.49
2022-10-04T08:33:34.691Z,70.39
2022-10-04T08:34:34.677Z,70.39
2022-10-04T08:35:34.678Z,69.89
2022-10-04T08:36:34.656Z,70.89
2022-10-04T08:37:34.659Z,70.09
2022-10-04T08:38:34.656Z,70.79
2022-10-04T08:39:35.523Z,71.00
2022-10-04T08:40:34.616Z,70.96
2022-10-04T08:41:34.622Z,70.09
2022-10-04T08:42:34.619Z,70.59
2022-10-04T08:43:34.586Z,70.59
2022-10-04T08:44:34.568Z,70.96
2022-10-04T08:45:34.562Z,70.86
2022-10-04T08:46:34.600Z,71.37
2022-10-04T08:47:34.546Z,70.46
2022-10-04T08:48:34.542Z,70.56
2022-10-04T08:49:34.576Z,70.36
2022-10-04T08:50:34.498Z,70.32
2022-10-04T08:51:34.490Z,70.36
2022-10-04T08:52:34.479Z,70.12
2022-10-04T08:53:34.475Z,69.42
2022-10-04T08:54:34.532Z,69.95
2022-10-04T08:55:34.516Z,69.92
2022-10-04T08:56:34.447Z,70.02
2022-10-04T08:57:34.424Z,70.32
2022-10-04T08:58:34.438Z,69.51
2022-10-04T08:59:34.401Z,69.85
2022-10-04T09:00:34.432Z,70.15
2022-10-04T09:01:34.443Z,70.53
2022-10-04T09:02:34.443Z,70.83
2022-10-04T09:03:34.379Z,69.82
2022-10-04T09:04:34.365Z,69.31
2022-10-04T09:05:34.335Z,69.82
2022-10-04T09:06:34.336Z,69.42
2022-10-04T09:07:34.437Z,69.42
2022-10-04T09:08:34.303Z,69.62
2022-10-04T09:09:34.311Z,69.71
2022-10-04T09:10:34.298Z,69.62
2022-10-04T09:11:34.271Z,69.51
2022-10-04T09:12:34.264Z,69.92
2022-10-04T09:13:34.270Z,70.53
2022-10-04T09:14:34.278Z,69.62
2022-10-04T09:15:34.266Z,69.31
2022-10-04T09:16:34.214Z,69.21
2022-10-04T09:17:34.207Z,69.11
2022-10-04T09:18:34.199Z,69.08
2022-10-04T09:19:34.181Z,69.38
2022-10-04T09:20:38.806Z,69.42
2022-10-04T09:21:34.198Z,69.28
2022-10-04T09:22:34.144Z,68.57
2022-10-04T09:23:34.146Z,68.57
2022-10-04T09:24:34.125Z,68.67
2022-10-04T09:25:34.145Z,69.35
2022-10-04T09:26:34.138Z,69.65
2022-10-04T09:27:54.037Z,69.18
2022-10-04T09:28:34.143Z,69.45
2022-10-04T09:29:34.080Z,69.35
2022-10-04T09:30:34.137Z,69.45
2022-10-04T09:31:34.133Z,68.64
2022-10-04T09:32:34.034Z,68.54
2022-10-04T09:33:34.040Z,68.74
2022-10-04T09:34:37.496Z,68.71
2022-10-04T09:35:34.014Z,68.54
2022-10-04T09:36:34.026Z,68.81
2022-10-04T09:37:33.992Z,68.21
2022-10-04T09:38:33.972Z,67.73
2022-10-04T09:39:33.982Z,68.04
2022-10-04T09:40:33.950Z,68.04
2022-10-04T09:41:33.959Z,68.04
2022-10-04T09:42:33.945Z,68.04
2022-10-04T09:43:33.915Z,68.33
2022-10-04T09:44:33.924Z,67.80
2022-10-04T09:45:33.892Z,68.44
2022-10-04T09:46:33.947Z,68.33
2022-10-04T09:47:33.893Z,67.73
2022-10-04T09:48:33.857Z,68.04
2022-10-04T09:49:33.870Z,68.24
2022-10-04T09:50:33.843Z,67.93
2022-10-04T09:51:33.825Z,68.33
2022-10-04T09:52:33.827Z,68.33
2022-10-04T09:53:33.816Z,67.83
2022-10-04T09:54:33.793Z,68.33
2022-10-04T09:55:33.782Z,67.63
2022-10-04T09:56:33.806Z,67.83
2022-10-04T09:57:33.784Z,68.33
2022-10-04T09:58:33.774Z,68.24
2022-10-04T09:59:33.753Z,68.37
2022-10-04T10:00:33.726Z,68.84
2022-10-04T10:01:33.771Z,68.64
2022-10-04T10:02:33.789Z,68.21
2022-10-04T10:03:33.695Z,67.80
2022-10-04T10:04:33.697Z,67.90
2022-10-04T10:05:33.695Z,68.07
2022-10-04T10:06:33.661Z,68.07
2022-10-04T10:07:33.649Z,67.77
2022-10-04T10:08:33.660Z,66.76
2022-10-04T10:09:33.627Z,66.76
2022-10-04T10:10:33.629Z,66.86
2022-10-04T10:11:33.647Z,66.56
2022-10-04T10:12:33.606Z,66.86
2022-10-04T10:13:33.614Z,66.13
2022-10-04T10:14:33.589Z,66.63
2022-10-04T10:15:33.783Z,66.33
2022-10-04T10:16:33.559Z,66.02
2022-10-04T10:17:33.539Z,66.22
2022-10-04T10:18:33.529Z,66.19
2022-10-04T10:19:33.602Z,65.89
2022-10-04T10:20:33.524Z,65.12
2022-10-04T10:21:33.508Z,64.89
2022-10-04T10:22:33.493Z,64.48
2022-10-04T10:23:33.476Z,63.87
2022-10-04T10:24:33.466Z,64.28
2022-10-04T10:25:33.482Z,63.98
2022-10-04T10:26:33.472Z,63.90
2022-10-04T10:27:33.447Z,64.81
2022-10-04T10:28:33.483Z,63.60
2022-10-04T10:29:33.424Z,63.81
2022-10-04T10:30:33.467Z,63.81
2022-10-04T10:31:33.486Z,64.04
2022-10-04T10:32:33.379Z,63.87
2022-10-04T10:33:33.366Z,64.18
2022-10-04T10:34:33.394Z,63.57
2022-10-04T10:35:33.407Z,64.48
2022-10-04T10:36:33.355Z,63.85
2022-10-04T10:37:33.339Z,62.26
2022-10-04T10:38:33.309Z,63.07
2022-10-04T10:39:33.317Z,62.26
2022-10-04T10:40:33.307Z,62.04
2022-10-04T10:41:33.296Z,62.24
2022-10-04T10:42:33.266Z,62.13
2022-10-04T10:43:33.254Z,62.41
2022-10-04T10:44:33.244Z,61.83
2022-10-04T10:45:33.244Z,61.53
2022-10-04T10:46:33.370Z,62.01
2022-10-04T10:47:33.300Z,60.89
2022-10-04T10:48:33.200Z,59.31
2022-10-04T10:49:33.193Z,60.60
2022-10-04T10:50:33.205Z,59.52
2022-10-04T10:51:33.300Z,59.42
2022-10-04T10:52:33.152Z,58.81
2022-10-04T10:53:33.215Z,60.19
2022-10-04T10:54:33.138Z,59.39
2022-10-04T10:55:33.151Z,58.38
2022-10-04T10:56:33.119Z,58.98
2022-10-04T10:57:33.137Z,59.99
2022-10-04T10:58:33.087Z,57.60
2022-10-04T10:59:33.087Z,58.18
2022-10-04T11:00:33.072Z,58.48
2022-10-04T11:01:33.212Z,58.78
2022-10-04T11:02:48.682Z,59.08
2022-10-04T11:03:34.153Z,58.25
2022-10-04T11:04:33.031Z,58.86
2022-10-04T11:05:33.007Z,59.56
2022-10-04T11:06:33.007Z,58.25
2022-10-04T11:07:32.987Z,58.15
2022-10-04T11:08:33.012Z,58.05
2022-10-04T11:09:32.988Z,57.72
2022-10-04T11:10:32.963Z,58.05
2022-10-04T11:11:32.976Z,58.53
2022-10-04T11:12:32.959Z,59.03
2022-10-04T11:13:32.936Z,58.83
2022-10-04T11:14:32.916Z,57.62
2022-10-04T11:15:32.901Z,57.62
2022-10-04T11:16:33.012Z,58.02
2022-10-04T11:17:32.878Z,58.62
2022-10-04T11:18:32.912Z,57.72
2022-10-04T11:19:32.861Z,59.03
2022-10-04T11:20:32.863Z,59.03
2022-10-04T11:21:32.844Z,59.03
2022-10-04T11:22:38.081Z,58.62
2022-10-04T11:23:32.812Z,58.53
2022-10-04T11:24:32.839Z,58.65
2022-10-04T11:25:32.806Z,58.75
2022-10-04T11:26:32.779Z,59.26
2022-10-04T11:27:32.766Z,59.26
2022-10-04T11:28:32.764Z,59.26
2022-10-04T11:29:32.751Z,59.66
2022-10-04T11:30:32.767Z,60.53
2022-10-04T11:31:32.805Z,59.63
2022-10-04T11:32:32.736Z,59.46
2022-10-04T11:33:32.698Z,59.06
2022-10-04T11:34:32.801Z,59.06
2022-10-04T11:35:32.698Z,58.15
2022-10-04T11:36:32.708Z,58.98
2022-10-04T11:37:32.672Z,58.58
2022-10-04T11:38:32.652Z,59.16
2022-10-04T11:39:32.631Z,58.95
2022-10-04T11:40:32.698Z,58.42
2022-10-04T11:41:32.659Z,58.62
2022-10-04T11:42:32.604Z,58.83
2022-10-04T11:43:32.601Z,58.73
2022-10-04T11:44:32.580Z,58.05
2022-10-04T11:45:32.589Z,57.65
2022-10-04T11:46:32.700Z,57.92
2022-10-04T11:47:32.542Z,57.62
2022-10-04T11:48:32.551Z,57.72
2022-10-04T11:49:32.522Z,58.12
2022-10-04T11:50:32.536Z,58.42
2022-10-04T11:51:32.561Z,58.02
2022-10-04T11:52:32.496Z,58.33
2022-10-04T11:53:32.515Z,58.62
2022-10-04T11:54:32.481Z,57.59
2022-10-04T11:55:32.481Z,56.99
2022-10-04T11:56:32.465Z,55.91
2022-10-04T11:57:32.455Z,57.09
2022-10-04T11:58:32.446Z,56.82
2022-10-04T11:59:32.514Z,57.92
2022-10-04T12:00:32.416Z,56.99
2022-10-04T12:01:32.387Z,57.50
2022-10-04T12:02:32.398Z,56.38
2022-10-04T12:03:32.417Z,56.82
2022-10-04T12:04:32.378Z,56.89
2022-10-04T12:05:32.360Z,57.79
2022-10-04T12:06:32.370Z,57.17
2022-10-04T12:07:32.362Z,57.37
2022-10-04T12:08:32.333Z,55.76
2022-10-04T12:09:32.305Z,56.06
2022-10-04T12:10:32.303Z,56.16
2022-10-04T12:11:32.285Z,56.16
2022-10-04T12:12:32.269Z,56.06
2022-10-04T12:13:32.329Z,56.03
2022-10-04T12:14:32.243Z,55.73
2022-10-04T12:15:32.229Z,56.74
2022-10-04T12:16:32.293Z,56.84
2022-10-04T12:17:32.217Z,56.93
2022-10-04T12:18:32.238Z,56.43
2022-10-04T12:19:32.232Z,56.43
2022-10-04T12:20:32.179Z,56.03
2022-10-04T12:21:32.164Z,55.91
2022-10-04T12:22:32.174Z,55.71
2022-10-04T12:23:32.175Z,54.20
2022-10-04T12:24:32.131Z,56.03
2022-10-04T12:25:32.140Z,56.51
2022-10-04T12:26:32.120Z,55.00
2022-10-04T12:27:32.102Z,54.33
2022-10-04T12:28:32.189Z,55.60
2022-10-04T12:29:32.088Z,54.10
2022-10-04T12:30:32.063Z,55.30
2022-10-04T12:31:32.143Z,55.30
2022-10-04T12:32:32.047Z,54.13
2022-10-04T12:33:32.033Z,55.53
2022-10-04T12:34:32.046Z,54.70
2022-10-04T12:35:32.007Z,54.60
2022-10-04T12:36:31.998Z,54.60
2022-10-04T12:37:31.984Z,54.83
2022-10-04T12:38:32.018Z,54.50
2022-10-04T12:39:31.967Z,55.33
2022-10-04T12:40:31.973Z,55.03
2022-10-04T12:41:31.939Z,55.33
2022-10-04T12:42:32.763Z,54.93
2022-10-04T12:43:31.938Z,55.20
2022-10-04T12:44:31.924Z,54.30
2022-10-04T12:45:31.992Z,54.40
2022-10-04T12:46:31.907Z,54.40
2022-10-04T12:47:31.897Z,54.50
2022-10-04T12:48:31.866Z,54.40
2022-10-04T12:49:31.851Z,54.70
2022-10-04T12:50:31.844Z,54.60
2022-10-04T12:51:31.850Z,54.40
2022-10-04T12:52:31.858Z,54.20